Terminal Aerodrome Forecast
Issued by NWS Wilmington, OH

Current Version | Previous Version | Text Only | Print | Product List | Glossary Off
Versions: 1 2 3 4 5 6 7 8 9 10 11 12 13 14 15 16 17 18 19 20 21 22 23 24 25 26 27 28 29 30 31 32 33 34 35 36 37 38 39 40

000
FTUS41 KILN 281841 AAA
TAFCVG
TAF AMD
KCVG 281841Z 2819/2924 25011G18KT P6SM VCTS BKN035CB
     FM282200 27009KT P6SM SCT050
     FM290800 28004KT 5SM BR OVC008
     FM291000 29004KT 2SM BR VV003
     FM291400 32006KT P6SM BKN015
     FM291600 30008KT P6SM BKN035=

USA.gov is the U.S. government's official web portal to all federal, state and local government web resources and services.